Time;durP1;ratioP1;P1;durP2;ratioP2;P2;SDS_P1;SDS_P2;PMS_P1;PMS_P2;Temp;Humidity;BMP_temperature;BMP_pressure;BME280_temperature;BME280_humidity;BME280_pressure;Samples;Min_cycle;Max_cycle;Signal;HPM_P1;HPM_P2
2023/04/21 00:00:55;;;;;;;1.65;1.55;;;18.90;61.00;;;;;;5017788;28;20042;-76
2023/04/21 00:03:22;;;;;;;1.48;1.40;;;18.90;61.00;;;;;;4996993;28;20207;-75
2023/04/21 00:05:48;;;;;;;1.27;1.27;;;18.90;61.00;;;;;;5001653;28;20050;-76
2023/04/21 00:08:14;;;;;;;1.98;1.88;;;18.90;61.00;;;;;;4994149;28;20053;-75
2023/04/21 00:10:40;;;;;;;1.90;1.80;;;18.90;61.10;;;;;;5003201;28;20173;-75
2023/04/21 00:13:05;;;;;;;1.90;1.80;;;18.90;61.20;;;;;;4985730;28;20177;-76
2023/04/21 00:15:31;;;;;;;1.88;1.77;;;18.90;61.10;;;;;;4953223;28;20057;-75
2023/04/21 00:17:57;;;;;;;1.85;1.52;;;18.90;61.20;;;;;;4970537;28;20542;-76
2023/04/21 00:20:25;;;;;;;1.35;1.33;;;18.90;61.20;;;;;;4984199;28;20428;-76
2023/04/21 00:22:52;;;;;;;1.75;1.65;;;18.90;61.30;;;;;;4970332;28;20042;-76
2023/04/21 00:25:17;;;;;;;1.50;1.40;;;18.80;61.30;;;;;;4985971;28;20066;-76
2023/04/21 00:27:43;;;;;;;1.55;1.48;;;18.80;61.30;;;;;;4969644;28;20073;-76
2023/04/21 00:30:09;;;;;;;1.50;1.40;;;18.80;61.30;;;;;;4988856;28;20511;-76
2023/04/21 00:32:34;;;;;;;1.27;1.20;;;18.90;61.40;;;;;;5001646;28;20450;-76
2023/04/21 00:35:00;;;;;;;1.70;1.60;;;18.80;61.30;;;;;;4982591;28;20138;-76
2023/04/21 00:37:26;;;;;;;1.50;1.40;;;18.80;61.30;;;;;;5000330;28;20050;-76
2023/04/21 00:39:51;;;;;;;1.67;1.58;;;18.80;61.40;;;;;;4983510;28;20035;-76
2023/04/21 00:42:17;;;;;;;3.78;1.83;;;18.80;61.30;;;;;;4982595;28;20050;-76
2023/04/21 00:44:42;;;;;;;1.65;1.55;;;18.80;61.40;;;;;;4987747;28;20042;-76
2023/04/21 00:47:08;;;;;;;1.58;1.48;;;18.80;61.40;;;;;;4984642;28;20476;-76
2023/04/21 00:49:34;;;;;;;1.60;1.50;;;18.80;61.50;;;;;;4986086;28;20058;-76
2023/04/21 00:51:59;;;;;;;1.50;1.40;;;18.80;61.50;;;;;;4996629;28;20582;-76
2023/04/21 00:54:25;;;;;;;1.55;1.45;;;18.80;61.50;;;;;;4987039;28;20030;-77
2023/04/21 00:56:50;;;;;;;1.55;1.45;;;18.80;61.60;;;;;;4966925;28;20062;-76
2023/04/21 00:59:16;;;;;;;1.52;1.40;;;18.80;61.60;;;;;;4998154;28;20128;-77
2023/04/21 01:01:41;;;;;;;1.60;1.50;;;18.80;61.60;;;;;;4986675;28;20515;-76
2023/04/21 01:04:09;;;;;;;1.25;1.23;;;18.80;61.60;;;;;;4983189;28;20129;-76
2023/04/21 01:06:34;;;;;;;1.40;1.35;;;18.80;61.70;;;;;;4984752;28;20138;-76
2023/04/21 01:09:00;;;;;;;1.42;1.25;;;18.80;61.70;;;;;;4983222;28;20125;-76
2023/04/21 01:11:25;;;;;;;1.88;1.63;;;18.80;61.70;;;;;;4985160;28;20093;-76
2023/04/21 01:13:53;;;;;;;2.35;1.67;;;18.80;61.70;;;;;;4983827;28;20038;-77
2023/04/21 01:16:19;;;;;;;1.30;1.30;;;18.80;61.70;;;;;;4984291;28;20045;-76
2023/04/21 01:18:45;;;;;;;1.50;1.40;;;18.80;61.70;;;;;;5000199;28;20050;-76
2023/04/21 01:21:10;;;;;;;1.23;1.20;;;18.80;61.80;;;;;;4965777;28;20066;-76
2023/04/21 01:23:36;;;;;;;1.50;1.40;;;18.80;61.80;;;;;;4964708;28;20133;-75
2023/04/21 01:26:02;;;;;;;1.65;1.42;;;18.80;61.80;;;;;;4982512;28;20062;-76
2023/04/21 01:28:27;;;;;;;2.30;1.42;;;18.80;61.80;;;;;;4965638;28;20507;-76
2023/04/21 01:30:53;;;;;;;1.63;1.23;;;18.80;61.80;;;;;;4985405;28;20042;-76
2023/04/21 01:33:18;;;;;;;1.40;1.30;;;18.80;61.80;;;;;;4979873;28;20523;-75
2023/04/21 01:35:44;;;;;;;1.40;1.30;;;18.70;61.80;;;;;;4985613;28;20551;-75
2023/04/21 01:38:10;;;;;;;1.00;1.00;;;18.80;61.90;;;;;;4981402;28;20121;-75
2023/04/21 01:40:36;;;;;;;1.40;1.30;;;18.80;61.90;;;;;;4984104;28;20089;-75
2023/04/21 01:43:02;;;;;;;1.25;1.15;;;18.80;62.00;;;;;;4977789;28;20047;-76
2023/04/21 01:45:29;;;;;;;1.55;1.45;;;18.80;62.80;;;;;;4985901;28;20104;-76
2023/04/21 01:47:54;;;;;;;1.20;1.20;;;18.80;61.90;;;;;;4984802;28;20049;-76
2023/04/21 01:50:20;;;;;;;1.40;1.30;;;18.80;62.70;;;;;;4981754;28;20181;-76
2023/04/21 01:52:45;;;;;;;1.75;1.65;;;18.70;61.90;;;;;;4985538;28;20574;-76
2023/04/21 01:55:11;;;;;;;1.58;1.48;;;18.70;61.80;;;;;;4980028;28;20459;-75
2023/04/21 01:57:36;;;;;;;1.73;1.63;;;18.70;61.90;;;;;;4984682;28;20049;-76
2023/04/21 02:00:03;;;;;;;1.27;1.17;;;18.70;61.80;;;;;;4986035;28;20070;-76
2023/04/21 02:02:29;;;;;;;1.45;1.35;;;18.70;61.90;;;;;;4983263;28;20117;-76
2023/04/21 02:04:54;;;;;;;1.35;1.25;;;18.70;61.90;;;;;;4982921;28;20579;-76
2023/04/21 02:07:20;;;;;;;3.10;1.40;;;18.70;61.90;;;;;;4982704;28;20138;-75
2023/04/21 02:09:45;;;;;;;1.10;1.10;;;18.70;61.90;;;;;;4981326;28;20056;-76
2023/04/21 02:12:11;;;;;;;1.65;1.40;;;18.70;62.00;;;;;;4981582;28;20083;-77
2023/04/21 02:14:37;;;;;;;1.50;1.40;;;18.70;61.90;;;;;;4981521;28;20122;-76
2023/04/21 02:17:03;;;;;;;1.20;1.10;;;18.70;61.90;;;;;;4982909;28;20404;-76
2023/04/21 02:19:29;;;;;;;1.48;1.38;;;18.70;61.80;;;;;;4983144;28;20423;-76
2023/04/21 02:21:54;;;;;;;1.27;1.20;;;18.70;61.90;;;;;;4984578;28;20065;-76
2023/04/21 02:24:20;;;;;;;2.03;1.50;;;18.70;61.90;;;;;;4980156;28;20042;-76
2023/04/21 02:26:46;;;;;;;1.40;1.30;;;18.70;62.00;;;;;;4984287;28;20062;-75
2023/04/21 02:29:11;;;;;;;0.93;0.93;;;18.70;62.00;;;;;;4984823;28;20050;-75
2023/04/21 02:31:37;;;;;;;4.25;1.60;;;18.70;62.00;;;;;;4997009;28;20038;-76
2023/04/21 02:34:02;;;;;;;1.27;1.20;;;18.70;62.10;;;;;;4982296;28;21401;-75
2023/04/21 02:36:28;;;;;;;1.42;1.33;;;18.70;62.20;;;;;;4982186;28;20109;-75
2023/04/21 02:38:54;;;;;;;1.73;1.42;;;18.70;62.20;;;;;;4981059;28;20096;-76
2023/04/21 02:41:19;;;;;;;1.25;1.25;;;18.70;62.20;;;;;;4984283;28;20061;-76
2023/04/21 02:43:45;;;;;;;1.15;1.05;;;18.70;62.20;;;;;;4983781;28;20078;-76
2023/04/21 02:46:10;;;;;;;1.33;1.23;;;18.70;62.20;;;;;;4981198;28;20054;-76
2023/04/21 02:48:36;;;;;;;1.20;1.10;;;18.70;62.20;;;;;;4984108;28;20054;-76
2023/04/21 02:51:03;;;;;;;1.35;1.25;;;18.70;62.20;;;;;;4984496;28;20045;-76
2023/04/21 02:53:28;;;;;;;1.10;1.10;;;18.70;62.20;;;;;;4982048;28;20543;-76
2023/04/21 02:55:54;;;;;;;1.02;1.02;;;18.70;62.20;;;;;;4984448;28;20038;-76
2023/04/21 02:58:20;;;;;;;1.02;1.02;;;18.70;62.30;;;;;;4981984;28;20177;-76
2023/04/21 03:00:45;;;;;;;1.05;0.95;;;18.70;62.30;;;;;;4981853;28;20066;-75
2023/04/21 03:03:11;;;;;;;1.00;1.00;;;18.70;62.20;;;;;;4982770;28;20069;-76
2023/04/21 03:05:36;;;;;;;1.27;1.20;;;18.70;62.30;;;;;;4982007;28;20529;-76
2023/04/21 03:08:02;;;;;;;1.17;1.13;;;18.70;62.30;;;;;;4982661;28;20057;-77
2023/04/21 03:10:27;;;;;;;1.15;1.10;;;18.70;62.30;;;;;;4982135;28;20054;-76
2023/04/21 03:12:54;;;;;;;1.60;1.10;;;18.70;62.30;;;;;;4971697;28;20034;-76
2023/04/21 03:15:21;;;;;;;1.45;1.35;;;18.70;62.30;;;;;;4990755;28;20136;-75
2023/04/21 03:17:47;;;;;;;1.10;1.10;;;18.70;62.30;;;;;;4983316;28;20050;-76
2023/04/21 03:20:12;;;;;;;1.00;1.00;;;18.60;62.30;;;;;;4974754;28;20034;-76
2023/04/21 03:22:38;;;;;;;1.08;1.08;;;18.70;62.50;;;;;;4965338;28;20046;-75
2023/04/21 03:25:05;;;;;;;0.90;0.90;;;18.70;62.60;;;;;;4965796;28;20031;-76
2023/04/21 03:27:31;;;;;;;1.23;1.13;;;18.70;62.60;;;;;;4981461;28;20086;-75
2023/04/21 03:29:56;;;;;;;0.88;0.88;;;18.70;62.80;;;;;;4951286;28;20057;-75
2023/04/21 03:32:22;;;;;;;1.15;1.05;;;18.60;62.90;;;;;;4945688;28;20051;-76
2023/04/21 03:34:49;;;;;;;1.15;1.15;;;18.70;63.10;;;;;;4984140;28;20039;-75
2023/04/21 03:37:14;;;;;;;1.20;1.10;;;18.70;63.30;;;;;;4959501;28;20026;-76
2023/04/21 03:39:40;;;;;;;1.10;1.10;;;18.70;63.40;;;;;;4971846;28;20041;-76
2023/04/21 03:42:05;;;;;;;1.10;1.10;;;18.60;63.40;;;;;;4969728;28;20037;-76
2023/04/21 03:44:31;;;;;;;1.08;1.08;;;18.60;63.50;;;;;;4983320;28;20511;-75
2023/04/21 03:46:56;;;;;;;1.30;1.20;;;18.70;63.60;;;;;;4994264;28;20121;-76
2023/04/21 03:49:22;;;;;;;1.48;1.38;;;18.60;63.70;;;;;;4997791;28;20050;-76
2023/04/21 03:51:48;;;;;;;1.17;1.17;;;18.60;63.80;;;;;;4998342;28;20046;-75
2023/04/21 03:54:14;;;;;;;1.40;1.30;;;18.60;63.80;;;;;;4991008;28;20038;-75
2023/04/21 03:56:39;;;;;;;1.17;1.15;;;18.60;63.80;;;;;;4964675;28;20050;-75
2023/04/21 03:59:05;;;;;;;1.15;1.13;;;18.60;63.80;;;;;;4953037;28;20447;-75
2023/04/21 04:01:31;;;;;;;1.45;1.35;;;18.60;63.80;;;;;;4981855;28;20046;-75
2023/04/21 04:03:57;;;;;;;1.40;1.30;;;18.60;63.90;;;;;;4991823;28;20424;-75
2023/04/21 04:06:22;;;;;;;1.45;1.35;;;18.60;63.80;;;;;;4965651;28;20043;-75
2023/04/21 04:08:48;;;;;;;1.17;1.10;;;18.60;63.80;;;;;;4955487;28;20418;-76
2023/04/21 04:11:13;;;;;;;0.90;0.90;;;18.70;63.70;;;;;;4960971;28;20034;-76
2023/04/21 04:13:39;;;;;;;1.05;1.05;;;18.60;63.70;;;;;;4985324;28;20054;-75
2023/04/21 04:16:05;;;;;;;1.00;1.00;;;18.60;63.60;;;;;;4982270;28;20564;-76
2023/04/21 04:18:30;;;;;;;1.25;1.23;;;18.60;63.60;;;;;;4988362;28;20816;-75
2023/04/21 04:20:56;;;;;;;1.10;1.10;;;18.60;63.70;;;;;;5001333;28;20062;-75
2023/04/21 04:23:21;;;;;;;1.25;1.17;;;18.60;63.70;;;;;;4976492;28;20182;-75
2023/04/21 04:25:48;;;;;;;1.17;1.17;;;18.60;63.70;;;;;;4964352;28;20087;-75
2023/04/21 04:28:14;;;;;;;0.70;0.70;;;18.60;63.60;;;;;;4963336;28;20430;-75
2023/04/21 04:30:40;;;;;;;0.88;0.88;;;18.60;63.60;;;;;;4965572;28;20043;-75
2023/04/21 04:33:05;;;;;;;1.08;0.98;;;18.60;64.50;;;;;;4984737;28;20045;-77
2023/04/21 04:35:31;;;;;;;0.82;0.82;;;18.60;63.70;;;;;;4984747;28;20050;-75
2023/04/21 04:37:57;;;;;;;1.02;1.00;;;18.60;63.50;;;;;;4983107;28;20535;-75
2023/04/21 04:40:23;;;;;;;0.90;0.90;;;18.60;63.60;;;;;;4965241;28;20059;-76
2023/04/21 04:42:50;;;;;;;0.82;0.82;;;18.60;63.40;;;;;;4981002;28;20513;-75
2023/04/21 04:45:15;;;;;;;1.10;1.10;;;18.60;63.40;;;;;;4999498;28;20043;-76
2023/04/21 04:47:41;;;;;;;1.10;1.10;;;18.60;63.40;;;;;;4968255;28;20054;-75
2023/04/21 04:50:07;;;;;;;0.93;0.93;;;18.50;63.40;;;;;;4980351;28;20108;-76
2023/04/21 04:52:32;;;;;;;0.95;0.95;;;18.60;63.40;;;;;;4969471;28;20177;-76
2023/04/21 04:54:58;;;;;;;0.80;0.80;;;18.60;63.30;;;;;;4967625;28;20640;-75
2023/04/21 04:57:24;;;;;;;0.90;0.90;;;18.50;63.40;;;;;;4998324;28;20047;-76
2023/04/21 04:59:54;;;;;;;1.15;1.05;;;18.50;63.30;;;;;;5001987;28;20042;-76
2023/04/21 05:02:21;;;;;;;1.00;1.00;;;18.50;63.30;;;;;;4969124;28;20049;-75
2023/04/21 05:04:46;;;;;;;1.02;1.02;;;18.50;63.30;;;;;;4999412;28;20081;-75
2023/04/21 05:07:12;;;;;;;0.80;0.80;;;18.50;63.20;;;;;;4966195;28;20051;-75
2023/04/21 05:09:38;;;;;;;1.10;0.90;;;18.60;63.10;;;;;;4969798;28;20429;-75
2023/04/21 05:12:03;;;;;;;1.20;1.10;;;18.60;63.10;;;;;;4972860;28;20096;-73
2023/04/21 05:14:29;;;;;;;0.98;0.90;;;18.60;63.30;;;;;;4966981;28;20054;-74
2023/04/21 05:16:55;;;;;;;1.23;1.23;;;18.60;63.20;;;;;;4998547;28;20507;-75
2023/04/21 05:19:20;;;;;;;1.42;1.33;;;18.60;62.70;;;;;;4980803;28;20496;-75
2023/04/21 05:21:46;;;;;;;1.67;1.58;;;18.60;62.30;;;;;;4615065;28;10000476;-75
2023/04/21 05:24:12;;;;;;;1.58;1.48;;;18.60;62.10;;;;;;4994604;28;20057;-75
2023/04/21 05:26:37;;;;;;;1.40;1.30;;;18.60;62.10;;;;;;4964978;28;21992;-75
2023/04/21 05:29:03;;;;;;;1.33;1.33;;;18.60;62.50;;;;;;4960759;28;20137;-75
2023/04/21 05:31:28;;;;;;;1.30;1.30;;;18.60;62.20;;;;;;4974540;28;20042;-75
2023/04/21 05:33:54;;;;;;;1.38;1.27;;;18.50;62.10;;;;;;4989172;28;20539;-75
2023/04/21 05:36:19;;;;;;;1.60;1.50;;;18.50;62.10;;;;;;4967491;28;20046;-75
2023/04/21 05:38:45;;;;;;;2.72;1.00;;;18.50;61.90;;;;;;4963453;28;20053;-75
2023/04/21 05:41:11;;;;;;;1.33;1.33;;;18.50;62.10;;;;;;4985544;28;20096;-74
2023/04/21 05:43:36;;;;;;;1.23;1.23;;;18.50;61.60;;;;;;4979451;28;20050;-74
2023/04/21 05:46:03;;;;;;;1.40;1.30;;;18.60;62.20;;;;;;5008903;28;20499;-74
2023/04/21 05:48:28;;;;;;;1.30;1.20;;;18.50;61.80;;;;;;4973978;28;20054;-73
2023/04/21 05:50:54;;;;;;;1.00;1.00;;;18.60;63.10;;;;;;4977859;28;20108;-75
2023/04/21 05:53:20;;;;;;;1.80;1.70;;;18.50;62.10;;;;;;4976200;28;20031;-74
2023/04/21 05:55:46;;;;;;;1.50;1.38;;;18.50;62.10;;;;;;4962119;28;20708;-74
2023/04/21 05:58:11;;;;;;;1.35;1.27;;;18.50;62.10;;;;;;4960865;28;20531;-74
2023/04/21 06:00:37;;;;;;;1.70;1.60;;;18.50;61.90;;;;;;4963414;28;20042;-76
2023/04/21 06:03:02;;;;;;;1.40;1.40;;;18.50;61.90;;;;;;4987531;28;20046;-75
2023/04/21 06:05:28;;;;;;;1.23;1.23;;;18.50;61.70;;;;;;4979532;28;20097;-75
2023/04/21 06:07:53;;;;;;;1.65;1.58;;;18.50;62.10;;;;;;5010743;28;20057;-75
2023/04/21 06:10:20;;;;;;;1.30;1.20;;;18.50;61.90;;;;;;4979328;28;20054;-74
2023/04/21 06:12:45;;;;;;;1.50;1.40;;;18.50;62.00;;;;;;5013323;28;20550;-75
2023/04/21 06:15:11;;;;;;;1.50;1.08;;;18.60;62.00;;;;;;5002212;28;20042;-75
2023/04/21 06:17:36;;;;;;;1.20;1.10;;;18.60;62.10;;;;;;4980795;28;20543;-74
2023/04/21 06:20:03;;;;;;;1.52;1.33;;;18.60;62.00;;;;;;4966522;28;20041;-75
2023/04/21 06:22:28;;;;;;;1.35;1.35;;;18.60;61.90;;;;;;4947793;28;20038;-75
2023/04/21 06:24:54;;;;;;;1.23;1.23;;;18.60;62.00;;;;;;4970613;28;20409;-74
2023/04/21 06:27:19;;;;;;;1.75;1.65;;;18.50;62.10;;;;;;4990048;28;20057;-76
2023/04/21 06:29:45;;;;;;;1.40;1.30;;;18.50;62.40;;;;;;4994143;28;20042;-75
2023/04/21 06:32:10;;;;;;;1.50;1.40;;;18.50;62.40;;;;;;4984296;28;20113;-76
2023/04/21 06:34:36;;;;;;;1.23;1.20;;;18.50;62.40;;;;;;4990463;28;20050;-76
2023/04/21 06:37:02;;;;;;;1.02;1.02;;;18.60;62.30;;;;;;4997327;28;20491;-76
2023/04/21 06:39:28;;;;;;;1.30;1.20;;;18.60;62.50;;;;;;5000184;28;20142;-74
2023/04/21 06:41:53;;;;;;;2.75;1.52;;;18.60;62.50;;;;;;4985226;28;20042;-75
2023/04/21 06:44:19;;;;;;;1.20;1.10;;;18.60;62.40;;;;;;5008894;28;20038;-76
2023/04/21 06:46:46;;;;;;;1.73;1.38;;;18.60;62.50;;;;;;4981030;28;20038;-75
2023/04/21 06:49:11;;;;;;;1.10;1.08;;;18.60;62.40;;;;;;5000504;28;20038;-76
2023/04/21 06:51:37;;;;;;;1.20;1.10;;;18.60;62.40;;;;;;4985208;28;20053;-75
2023/04/21 06:54:03;;;;;;;1.90;1.10;;;18.60;63.40;;;;;;5013287;28;20103;-74
2023/04/21 06:56:28;;;;;;;3.35;1.60;;;18.60;62.90;;;;;;4967670;28;20454;-74
2023/04/21 06:58:54;;;;;;;1.58;1.45;;;18.60;62.40;;;;;;4989332;28;20042;-74
2023/04/21 07:01:20;;;;;;;1.40;1.30;;;18.60;62.70;;;;;;4987930;28;20275;-75
2023/04/21 07:03:46;;;;;;;2.50;1.27;;;18.60;63.10;;;;;;4996389;28;20042;-74
2023/04/21 07:06:11;;;;;;;1.50;1.40;;;18.60;62.70;;;;;;4983116;28;20078;-74
2023/04/21 07:08:37;;;;;;;1.10;1.00;;;18.60;62.70;;;;;;4991884;28;20100;-74
2023/04/21 07:11:03;;;;;;;1.35;1.25;;;18.60;62.70;;;;;;5000585;28;20042;-75
2023/04/21 07:13:29;;;;;;;1.38;1.38;;;18.60;62.90;;;;;;4998602;28;20566;-75
2023/04/21 07:15:54;;;;;;;1.83;1.20;;;18.60;62.90;;;;;;4979651;28;20530;-75
2023/04/21 07:18:20;;;;;;;1.40;1.40;;;18.60;62.70;;;;;;4984864;28;20558;-75
2023/04/21 07:20:45;;;;;;;1.38;1.38;;;18.60;62.60;;;;;;4985245;28;20153;-74
2023/04/21 07:23:11;;;;;;;1.27;1.27;;;18.60;62.70;;;;;;5000318;28;20069;-74
2023/04/21 07:25:36;;;;;;;1.30;1.30;;;18.60;63.60;;;;;;5004377;28;20091;-74
2023/04/21 07:28:03;;;;;;;2.78;1.33;;;18.60;62.90;;;;;;4984546;28;20061;-74
2023/04/21 07:30:29;;;;;;;1.60;1.52;;;18.60;62.70;;;;;;5001203;28;20054;-74
2023/04/21 07:32:54;;;;;;;5.30;5.00;;;18.60;62.70;;;;;;5001144;28;20223;-74
2023/04/21 07:35:20;;;;;;;8.02;7.38;;;18.50;56.10;;;;;;5016367;28;20037;-75
2023/04/21 07:37:46;;;;;;;5.95;5.65;;;18.00;55.80;;;;;;5002440;28;20076;-75
2023/04/21 07:40:11;;;;;;;5.53;5.15;;;18.10;57.60;;;;;;5000187;28;20141;-75
2023/04/21 07:42:37;;;;;;;5.10;4.63;;;18.20;57.60;;;;;;4997650;28;20109;-74
2023/04/21 07:45:03;;;;;;;4.35;4.15;;;18.40;58.70;;;;;;5004094;28;20042;-74
2023/04/21 07:47:29;;;;;;;3.58;3.20;;;18.40;59.30;;;;;;5002048;28;20065;-74
2023/04/21 07:49:54;;;;;;;3.13;3.03;;;18.40;59.10;;;;;;5002680;28;20065;-74
2023/04/21 07:52:20;;;;;;;3.13;2.95;;;18.50;59.00;;;;;;4983613;28;20601;-74
2023/04/21 07:54:46;;;;;;;3.47;3.28;;;18.50;59.30;;;;;;5007883;28;20606;-73
2023/04/21 07:57:11;;;;;;;3.08;2.95;;;18.50;59.30;;;;;;4988545;28;20056;-74
2023/04/21 07:59:37;;;;;;;3.10;2.90;;;18.50;59.30;;;;;;4955788;28;20134;-75
2023/04/21 08:02:02;;;;;;;2.67;2.58;;;18.50;59.30;;;;;;4973072;28;20073;-73
2023/04/21 08:04:28;;;;;;;3.05;2.85;;;18.50;59.30;;;;;;5006174;28;20410;-75
2023/04/21 08:06:53;;;;;;;3.10;2.90;;;18.50;59.40;;;;;;5005324;28;20640;-74
2023/04/21 08:09:19;;;;;;;2.70;2.60;;;18.60;59.50;;;;;;4971941;28;20054;-75
2023/04/21 08:11:46;;;;;;;3.22;3.03;;;18.60;59.50;;;;;;4983051;28;20506;-74
2023/04/21 08:14:11;;;;;;;2.88;2.78;;;18.60;59.50;;;;;;4997855;28;20050;-74
2023/04/21 08:16:37;;;;;;;2.50;2.40;;;18.60;59.70;;;;;;4997622;28;20046;-74
2023/04/21 08:19:05;;;;;;;2.28;2.17;;;18.70;59.70;;;;;;4987256;28;20470;-74
2023/04/21 08:21:32;;;;;;;2.25;2.15;;;18.70;59.70;;;;;;4985010;28;20050;-75
2023/04/21 08:23:57;;;;;;;2.28;2.17;;;18.70;59.60;;;;;;4994280;28;20100;-75
2023/04/21 08:26:24;;;;;;;2.92;2.50;;;18.70;59.80;;;;;;4968790;28;20034;-75
2023/04/21 08:28:51;;;;;;;2.00;1.90;;;18.70;60.20;;;;;;4970186;28;20042;-74
2023/04/21 08:31:17;;;;;;;1.85;1.75;;;18.70;60.10;;;;;;4985384;28;20034;-75
2023/04/21 08:33:43;;;;;;;2.38;2.28;;;18.70;60.30;;;;;;4984110;28;20198;-75
2023/04/21 08:36:09;;;;;;;2.00;1.92;;;18.80;60.50;;;;;;5002266;28;20528;-74
2023/04/21 08:38:34;;;;;;;2.10;2.00;;;18.80;60.40;;;;;;4984252;28;20035;-75
2023/04/21 08:41:00;;;;;;;3.63;3.42;;;18.80;60.60;;;;;;4985929;28;20073;-74
2023/04/21 08:43:27;;;;;;;6.97;6.55;;;18.70;57.10;;;;;;4972916;28;20042;-74
2023/04/21 08:45:55;;;;;;;7.03;6.53;;;18.40;53.10;;;;;;5005832;28;20049;-74
2023/04/21 08:48:22;;;;;;;8.00;7.50;;;18.30;52.30;;;;;;4986044;28;20072;-75
2023/04/21 08:50:49;;;;;;;8.32;7.78;;;18.20;51.80;;;;;;5008412;28;20609;-74
2023/04/21 08:53:15;;;;;;;9.27;8.52;;;18.00;51.20;;;;;;5005422;28;20038;-74
2023/04/21 08:55:41;;;;;;;8.05;7.57;;;17.90;51.00;;;;;;4970298;28;20400;-74
2023/04/21 08:58:08;;;;;;;8.70;8.07;;;17.80;51.10;;;;;;5005024;28;20145;-74
2023/04/21 09:00:36;;;;;;;9.00;8.30;;;17.80;50.40;;;;;;4986437;28;20045;-74
2023/04/21 09:03:03;;;;;;;8.15;7.55;;;17.80;49.90;;;;;;4973334;28;20096;-73
2023/04/21 09:05:30;;;;;;;7.60;7.10;;;17.80;51.20;;;;;;4967543;28;20046;-74
2023/04/21 09:08:08;;;;;;;8.70;8.05;;;17.80;50.00;;;;;;4965982;28;20046;-74
2023/04/21 09:10:41;;;;;;;7.40;6.93;;;17.80;50.30;;;;;;4952894;28;20038;-75
2023/04/21 09:13:07;;;;;;;7.47;6.97;;;17.80;49.70;;;;;;4975521;28;20078;-73
2023/04/21 09:15:46;;;;;;;8.63;7.93;;;17.80;49.70;;;;;;4968550;28;20133;-75
2023/04/21 09:18:19;;;;;;;7.97;7.38;;;17.70;49.30;;;;;;4979478;28;20127;-75
2023/04/21 09:20:46;;;;;;;7.57;7.07;;;17.80;48.90;;;;;;5003473;28;21969;-74
2023/04/21 09:23:11;;;;;;;8.13;7.43;;;17.80;48.80;;;;;;4980943;28;20771;-77
2023/04/21 09:25:38;;;;;;;6.43;6.03;;;17.80;49.20;;;;;;4972940;28;20046;-79
2023/04/21 09:28:13;;;;;;;6.78;6.38;;;17.90;49.20;;;;;;4951116;28;20530;-78
2023/04/21 09:30:40;;;;;;;7.05;6.65;;;17.80;49.40;;;;;;4999238;28;20738;-78
2023/04/21 09:33:06;;;;;;;6.90;6.47;;;17.90;48.70;;;;;;5013645;28;20073;-77
2023/04/21 09:35:35;;;;;;;6.50;6.10;;;17.90;48.80;;;;;;4969413;28;20049;-79
2023/04/21 09:38:01;;;;;;;6.85;6.35;;;17.80;47.80;;;;;;4972497;28;20053;-78
2023/04/21 09:40:28;;;;;;;7.13;6.55;;;17.70;48.20;;;;;;4988365;28;20519;-80
2023/04/21 09:42:53;;;;;;;6.70;6.30;;;17.80;48.70;;;;;;4986853;28;20054;-78
2023/04/21 09:45:19;;;;;;;6.53;6.22;;;17.80;48.50;;;;;;5002741;28;20528;-79
2023/04/21 09:47:50;;;;;;;6.07;5.75;;;17.80;48.70;;;;;;4982562;28;20050;-79
2023/04/21 09:50:16;;;;;;;6.28;5.97;;;17.80;48.20;;;;;;5012127;28;20664;-79
2023/04/21 09:52:42;;;;;;;6.20;5.80;;;17.70;48.40;;;;;;4968140;28;20062;-79
2023/04/21 09:55:10;;;;;;;5.93;5.53;;;17.60;48.30;;;;;;4969674;28;20046;-78
2023/04/21 09:57:38;;;;;;;6.85;6.25;;;17.50;47.90;;;;;;4985857;28;20054;-78
2023/04/21 10:00:09;;;;;;;6.43;5.93;;;17.50;47.90;;;;;;4974038;28;20073;-78
2023/04/21 10:02:37;;;;;;;5.78;5.47;;;17.50;47.60;;;;;;5000372;28;20138;-78
2023/04/21 10:05:04;;;;;;;5.43;5.03;;;17.60;47.90;;;;;;4977919;28;20419;-78
2023/04/21 10:07:29;;;;;;;6.10;5.57;;;17.50;48.40;;;;;;4980855;28;20043;-77
2023/04/21 10:09:55;;;;;;;5.70;5.30;;;17.60;47.70;;;;;;4950291;28;20523;-77
2023/04/21 10:12:21;;;;;;;6.00;5.70;;;17.60;47.70;;;;;;4966425;28;20047;-78
2023/04/21 10:14:54;;;;;;;5.32;5.00;;;17.50;47.50;;;;;;4947632;28;20062;-76
2023/04/21 10:17:24;;;;;;;5.90;5.20;;;17.60;47.90;;;;;;4959950;28;20050;-76
2023/04/21 10:19:56;;;;;;;5.25;4.95;;;17.70;48.10;;;;;;4962250;28;20507;-76
2023/04/21 10:22:31;;;;;;;5.07;4.68;;;17.80;47.80;;;;;;4965138;28;20311;-75
2023/04/21 10:24:59;;;;;;;4.97;4.68;;;17.80;48.40;;;;;;4960178;28;20065;-75
2023/04/21 10:27:35;;;;;;;5.75;5.25;;;17.80;49.10;;;;;;4945971;28;20059;-77
2023/04/21 10:30:01;;;;;;;6.07;5.57;;;17.90;48.80;;;;;;4959953;28;20046;-76
2023/04/21 10:32:40;;;;;;;5.32;5.03;;;17.80;48.20;;;;;;4944116;28;20129;-75
2023/04/21 10:35:09;;;;;;;5.70;5.20;;;17.80;48.30;;;;;;4941552;28;20047;-76
2023/04/21 10:37:34;;;;;;;5.72;5.32;;;17.80;48.30;;;;;;4924429;28;20130;-75
2023/04/21 10:40:00;;;;;;;5.60;5.30;;;17.90;48.20;;;;;;4939495;28;20126;-75
2023/04/21 10:42:27;;;;;;;5.45;5.15;;;17.90;48.50;;;;;;4938009;28;20043;-75
2023/04/21 10:44:55;;;;;;;5.43;5.13;;;17.90;48.20;;;;;;4945293;28;20067;-75
2023/04/21 10:47:42;;;;;;;5.04;4.80;;;18.00;48.70;;;;;;4880543;28;10000600;-74
2023/04/21 10:50:21;;;;;;;6.03;5.53;;;17.90;48.10;;;;;;4963444;28;20260;-73
2023/04/21 10:53:10;;;;;;;5.30;5.00;;;17.90;47.70;;;;;;4987948;28;20131;-73
2023/04/21 10:55:35;;;;;;;5.45;5.15;;;17.80;48.40;;;;;;4953379;28;20034;-73
2023/04/21 10:58:06;;;;;;;5.20;4.90;;;17.80;48.70;;;;;;4974248;28;20046;-74
2023/04/21 11:00:31;;;;;;;5.35;5.05;;;17.90;47.80;;;;;;4973775;28;20039;-74
2023/04/21 11:03:01;;;;;;;5.45;5.15;;;17.90;48.30;;;;;;4988034;28;20096;-73
2023/04/21 11:05:37;;;;;;;5.22;4.75;;;17.90;47.50;;;;;;4964739;28;20037;-73
2023/04/21 11:08:07;;;;;;;5.20;4.90;;;18.00;47.50;;;;;;4950780;28;20055;-73
2023/04/21 11:10:53;;;;;;;5.18;4.88;;;18.00;47.80;;;;;;4933283;28;20078;-75
2023/04/21 11:13:23;;;;;;;4.90;4.60;;;17.90;48.40;;;;;;4971927;28;20158;-74
2023/04/21 11:15:56;;;;;;;5.03;4.72;;;18.00;47.50;;;;;;4958613;28;20564;-74
2023/04/21 11:18:32;;;;;;;5.32;5.03;;;18.00;47.50;;;;;;4956489;28;20121;-74
2023/04/21 11:21:18;;;;;;;5.32;5.03;;;18.00;47.00;;;;;;4997284;28;20046;-73
2023/04/21 11:23:48;;;;;;;4.90;4.60;;;17.90;47.80;;;;;;4980626;28;20056;-74
2023/04/21 11:26:14;;;;;;;5.32;4.93;;;18.10;48.10;;;;;;4982631;28;20057;-73
2023/04/21 11:28:42;;;;;;;4.95;4.65;;;18.00;47.80;;;;;;4986676;28;20046;-74
2023/04/21 11:31:08;;;;;;;5.70;5.30;;;18.00;47.80;;;;;;4976804;28;20051;-73
2023/04/21 11:33:37;;;;;;;5.25;4.95;;;18.10;48.30;;;;;;4967072;28;20053;-74
2023/04/21 11:36:06;;;;;;;4.95;4.75;;;18.00;47.90;;;;;;4985977;28;20050;-73
2023/04/21 11:38:39;;;;;;;5.00;4.78;;;18.00;47.00;;;;;;4979406;28;20138;-73
2023/04/21 11:41:04;;;;;;;5.13;4.72;;;18.00;47.10;;;;;;4997049;28;20125;-73
2023/04/21 11:43:30;;;;;;;5.35;4.90;;;18.00;46.90;;;;;;4995916;28;20125;-74
2023/04/21 11:46:15;;;;;;;4.93;4.53;;;18.00;47.60;;;;;;4982099;28;20753;-73
2023/04/21 11:48:42;;;;;;;4.63;4.43;;;18.10;47.50;;;;;;4958788;28;20100;-73
2023/04/21 11:51:14;;;;;;;3.95;3.75;;;18.10;47.60;;;;;;4980161;28;20468;-74
2023/04/21 11:53:39;;;;;;;4.35;4.15;;;18.10;48.30;;;;;;4965024;28;20512;-74
2023/04/21 11:56:05;;;;;;;4.80;4.60;;;18.10;48.70;;;;;;4955491;28;20063;-73
2023/04/21 11:58:31;;;;;;;5.13;4.82;;;18.10;48.60;;;;;;4960087;28;20081;-74
2023/04/21 12:00:56;;;;;;;4.55;4.35;;;18.00;48.10;;;;;;4975303;28;20642;-73
2023/04/21 12:03:22;;;;;;;4.47;4.18;;;18.00;48.50;;;;;;4973809;28;20045;-73
2023/04/21 12:05:55;;;;;;;4.18;3.97;;;18.00;48.10;;;;;;4979489;28;20126;-73
2023/04/21 12:08:20;;;;;;;5.13;4.82;;;18.10;48.20;;;;;;4983506;28;20054;-74
2023/04/21 12:10:46;;;;;;;4.55;4.32;;;18.10;47.80;;;;;;4985692;28;20623;-74
2023/04/21 12:13:12;;;;;;;4.78;4.53;;;18.00;47.70;;;;;;4997473;28;20466;-73
2023/04/21 12:15:37;;;;;;;4.78;4.40;;;18.00;48.50;;;;;;4995804;28;20409;-75
2023/04/21 12:18:03;;;;;;;4.63;4.43;;;18.10;48.30;;;;;;4980668;28;20535;-74
2023/04/21 12:20:29;;;;;;;3.90;3.70;;;18.20;48.00;;;;;;5001066;28;20558;-73
2023/04/21 12:22:55;;;;;;;3.75;3.55;;;18.20;48.60;;;;;;4985326;28;20058;-74
2023/04/21 12:25:21;;;;;;;4.15;3.95;;;18.20;48.30;;;;;;4984489;28;20038;-73
2023/04/21 12:27:50;;;;;;;4.38;4.13;;;18.20;48.60;;;;;;4998226;28;20050;-74
2023/04/21 12:30:16;;;;;;;4.18;3.97;;;18.20;48.00;;;;;;4983758;28;20054;-73
2023/04/21 12:32:42;;;;;;;4.35;4.15;;;18.20;47.60;;;;;;4984670;28;20049;-74
2023/04/21 12:35:08;;;;;;;4.28;4.07;;;18.20;47.90;;;;;;4983896;28;20428;-73
2023/04/21 12:37:33;;;;;;;4.80;4.55;;;18.20;47.30;;;;;;4985669;28;20034;-74
2023/04/21 12:39:59;;;;;;;4.45;4.25;;;18.10;47.30;;;;;;4985271;28;20042;-73
2023/04/21 12:42:24;;;;;;;4.80;4.60;;;18.10;47.40;;;;;;4987311;28;20560;-73